sensor_id;sensor_type;location;lat;lon;timestamp;P1;durP1;ratioP1;P2;durP2;ratioP2
45296;SDS011;31040;51.622;10.420;2022-10-28T00:01:21;8.05;;;4.40;;
45296;SDS011;31040;51.622;10.420;2022-10-28T00:03:53;13.05;;;5.07;;
45296;SDS011;31040;51.622;10.420;2022-10-28T00:06:24;10.85;;;5.38;;
45296;SDS011;31040;51.622;10.420;2022-10-28T00:09:05;10.32;;;5.18;;
45296;SDS011;31040;51.622;10.420;2022-10-28T00:11:46;11.82;;;5.65;;
45296;SDS011;31040;51.622;10.420;2022-10-28T00:14:27;13.13;;;5.03;;
45296;SDS011;31040;51.622;10.420;2022-10-28T00:16:56;5.97;;;3.70;;
45296;SDS011;31040;51.622;10.420;2022-10-28T00:19:27;12.90;;;5.10;;
45296;SDS011;31040;51.622;10.420;2022-10-28T00:22:09;10.90;;;4.85;;
45296;SDS011;31040;51.622;10.420;2022-10-28T00:24:50;6.22;;;4.40;;
45296;SDS011;31040;51.622;10.420;2022-10-28T00:27:31;6.68;;;4.00;;
45296;SDS011;31040;51.622;10.420;2022-10-28T00:30:00;8.05;;;4.68;;
45296;SDS011;31040;51.622;10.420;2022-10-28T00:32:33;8.57;;;4.28;;
45296;SDS011;31040;51.622;10.420;2022-10-28T00:35:14;12.05;;;4.43;;
45296;SDS011;31040;51.622;10.420;2022-10-28T00:37:55;6.82;;;3.70;;
45296;SDS011;31040;51.622;10.420;2022-10-28T00:40:36;12.50;;;4.53;;
45296;SDS011;31040;51.622;10.420;2022-10-28T00:43:31;7.38;;;4.30;;
45296;SDS011;31040;51.622;10.420;2022-10-28T00:46:01;7.15;;;3.97;;
45296;SDS011;31040;51.622;10.420;2022-10-28T00:48:29;11.65;;;4.60;;
45296;SDS011;31040;51.622;10.420;2022-10-28T00:51:03;8.38;;;4.13;;
45296;SDS011;31040;51.622;10.420;2022-10-28T00:53:33;9.35;;;4.90;;
45296;SDS011;31040;51.622;10.420;2022-10-28T00:56:06;6.90;;;4.22;;
45296;SDS011;31040;51.622;10.420;2022-10-28T00:58:37;11.40;;;4.50;;
45296;SDS011;31040;51.622;10.420;2022-10-28T01:01:13;12.65;;;4.53;;
45296;SDS011;31040;51.622;10.420;2022-10-28T01:03:43;4.68;;;4.03;;
45296;SDS011;31040;51.622;10.420;2022-10-28T01:06:24;7.38;;;5.07;;
45296;SDS011;31040;51.622;10.420;2022-10-28T01:09:06;8.75;;;4.55;;
45296;SDS011;31040;51.622;10.420;2022-10-28T01:11:44;14.93;;;6.07;;
45296;SDS011;31040;51.622;10.420;2022-10-28T01:39:29;9.63;;;4.75;;
45296;SDS011;31040;51.622;10.420;2022-10-28T01:45:16;13.32;;;5.18;;
45296;SDS011;31040;51.622;10.420;2022-10-28T01:50:36;13.00;;;5.32;;
45296;SDS011;31040;51.622;10.420;2022-10-28T01:53:21;10.10;;;5.53;;
45296;SDS011;31040;51.622;10.420;2022-10-28T01:56:09;16.60;;;5.50;;
45296;SDS011;31040;51.622;10.420;2022-10-28T01:58:45;8.00;;;4.95;;
45296;SDS011;31040;51.622;10.420;2022-10-28T02:01:16;7.72;;;4.95;;
45296;SDS011;31040;51.622;10.420;2022-10-28T02:03:58;11.38;;;5.57;;
45296;SDS011;31040;51.622;10.420;2022-10-28T02:06:40;17.42;;;5.05;;
45296;SDS011;31040;51.622;10.420;2022-10-28T02:09:19;12.85;;;4.80;;
45296;SDS011;31040;51.622;10.420;2022-10-28T02:31:19;11.60;;;5.60;;
45296;SDS011;31040;51.622;10.420;2022-10-28T02:33:56;13.73;;;5.10;;
45296;SDS011;31040;51.622;10.420;2022-10-28T02:36:39;7.85;;;4.60;;
45296;SDS011;31040;51.622;10.420;2022-10-28T02:39:25;6.55;;;4.40;;
45296;SDS011;31040;51.622;10.420;2022-10-28T02:44:41;8.10;;;4.38;;
45296;SDS011;31040;51.622;10.420;2022-10-28T02:47:14;9.50;;;4.38;;
45296;SDS011;31040;51.622;10.420;2022-10-28T02:49:56;9.88;;;4.97;;
45296;SDS011;31040;51.622;10.420;2022-10-28T02:52:27;12.68;;;4.45;;
45296;SDS011;31040;51.622;10.420;2022-10-28T02:54:57;12.50;;;4.70;;
45296;SDS011;31040;51.622;10.420;2022-10-28T03:00:09;11.10;;;4.63;;
45296;SDS011;31040;51.622;10.420;2022-10-28T03:02:39;17.02;;;5.65;;
45296;SDS011;31040;51.622;10.420;2022-10-28T03:05:10;6.47;;;4.80;;
45296;SDS011;31040;51.622;10.420;2022-10-28T03:07:37;5.22;;;4.55;;
45296;SDS011;31040;51.622;10.420;2022-10-28T03:10:11;11.43;;;4.60;;
45296;SDS011;31040;51.622;10.420;2022-10-28T03:12:42;6.88;;;3.90;;
45296;SDS011;31040;51.622;10.420;2022-10-28T03:15:13;13.38;;;4.93;;
45296;SDS011;31040;51.622;10.420;2022-10-28T03:17:47;10.88;;;4.45;;
45296;SDS011;31040;51.622;10.420;2022-10-28T03:20:15;16.80;;;5.53;;
45296;SDS011;31040;51.622;10.420;2022-10-28T03:22:47;13.52;;;4.75;;
45296;SDS011;31040;51.622;10.420;2022-10-28T03:25:17;8.48;;;4.20;;
45296;SDS011;31040;51.622;10.420;2022-10-28T03:27:46;10.73;;;4.25;;
45296;SDS011;31040;51.622;10.420;2022-10-28T03:30:18;8.45;;;4.72;;
45296;SDS011;31040;51.622;10.420;2022-10-28T03:32:46;10.70;;;4.93;;
45296;SDS011;31040;51.622;10.420;2022-10-28T03:35:14;11.77;;;5.13;;
45296;SDS011;31040;51.622;10.420;2022-10-28T03:37:42;10.88;;;4.60;;
45296;SDS011;31040;51.622;10.420;2022-10-28T03:40:09;12.55;;;4.95;;
45296;SDS011;31040;51.622;10.420;2022-10-28T03:42:39;12.85;;;4.45;;
45296;SDS011;31040;51.622;10.420;2022-10-28T03:45:08;10.13;;;5.03;;
45296;SDS011;31040;51.622;10.420;2022-10-28T03:47:36;9.60;;;4.75;;
45296;SDS011;31040;51.622;10.420;2022-10-28T03:50:03;11.35;;;5.25;;
45296;SDS011;31040;51.622;10.420;2022-10-28T03:52:31;8.80;;;4.57;;
45296;SDS011;31040;51.622;10.420;2022-10-28T03:54:59;10.13;;;4.18;;
45296;SDS011;31040;51.622;10.420;2022-10-28T03:57:29;8.10;;;4.28;;
45296;SDS011;31040;51.622;10.420;2022-10-28T03:59:57;11.10;;;4.43;;
45296;SDS011;31040;51.622;10.420;2022-10-28T04:02:24;12.40;;;4.68;;
45296;SDS011;31040;51.622;10.420;2022-10-28T04:04:52;7.75;;;4.50;;
45296;SDS011;31040;51.622;10.420;2022-10-28T04:07:20;22.40;;;5.43;;
45296;SDS011;31040;51.622;10.420;2022-10-28T04:09:49;15.70;;;5.47;;
45296;SDS011;31040;51.622;10.420;2022-10-28T04:12:17;8.88;;;4.20;;
45296;SDS011;31040;51.622;10.420;2022-10-28T04:14:45;13.15;;;4.85;;
45296;SDS011;31040;51.622;10.420;2022-10-28T04:17:13;10.55;;;4.80;;
45296;SDS011;31040;51.622;10.420;2022-10-28T04:19:40;8.05;;;4.80;;
45296;SDS011;31040;51.622;10.420;2022-10-28T04:22:08;10.23;;;4.68;;
45296;SDS011;31040;51.622;10.420;2022-10-28T04:24:40;12.07;;;4.53;;
45296;SDS011;31040;51.622;10.420;2022-10-28T04:27:08;13.02;;;4.90;;
45296;SDS011;31040;51.622;10.420;2022-10-28T04:29:35;9.65;;;4.97;;
45296;SDS011;31040;51.622;10.420;2022-10-28T04:32:03;10.32;;;4.90;;
45296;SDS011;31040;51.622;10.420;2022-10-28T04:34:30;15.38;;;5.43;;
45296;SDS011;31040;51.622;10.420;2022-10-28T04:36:59;13.10;;;5.43;;
45296;SDS011;31040;51.622;10.420;2022-10-28T04:39:28;10.68;;;5.63;;
45296;SDS011;31040;51.622;10.420;2022-10-28T04:41:56;8.05;;;4.80;;
45296;SDS011;31040;51.622;10.420;2022-10-28T04:44:23;12.05;;;5.07;;
45296;SDS011;31040;51.622;10.420;2022-10-28T04:46:51;12.75;;;5.18;;
45296;SDS011;31040;51.622;10.420;2022-10-28T04:49:18;14.05;;;6.35;;
45296;SDS011;31040;51.622;10.420;2022-10-28T04:51:45;10.13;;;5.63;;
45296;SDS011;31040;51.622;10.420;2022-10-28T04:54:13;10.95;;;5.07;;
45296;SDS011;31040;51.622;10.420;2022-10-28T04:56:40;8.52;;;4.90;;
45296;SDS011;31040;51.622;10.420;2022-10-28T04:59:08;9.82;;;4.25;;
45296;SDS011;31040;51.622;10.420;2022-10-28T05:01:35;10.63;;;4.85;;
45296;SDS011;31040;51.622;10.420;2022-10-28T05:04:06;14.63;;;5.07;;
45296;SDS011;31040;51.622;10.420;2022-10-28T05:06:34;10.88;;;5.45;;
45296;SDS011;31040;51.622;10.420;2022-10-28T05:09:01;10.65;;;4.93;;
45296;SDS011;31040;51.622;10.420;2022-10-28T05:11:29;13.75;;;5.38;;
45296;SDS011;31040;51.622;10.420;2022-10-28T05:13:56;9.57;;;5.22;;
45296;SDS011;31040;51.622;10.420;2022-10-28T05:16:24;9.45;;;5.43;;
45296;SDS011;31040;51.622;10.420;2022-10-28T05:18:51;10.00;;;4.50;;
45296;SDS011;31040;51.622;10.420;2022-10-28T05:21:19;10.55;;;4.82;;
45296;SDS011;31040;51.622;10.420;2022-10-28T05:23:47;7.10;;;4.40;;
45296;SDS011;31040;51.622;10.420;2022-10-28T05:26:14;7.97;;;4.32;;
45296;SDS011;31040;51.622;10.420;2022-10-28T05:28:48;10.73;;;4.45;;
45296;SDS011;31040;51.622;10.420;2022-10-28T05:31:16;6.85;;;4.00;;
45296;SDS011;31040;51.622;10.420;2022-10-28T05:33:43;9.63;;;4.10;;
45296;SDS011;31040;51.622;10.420;2022-10-28T05:36:11;7.50;;;4.15;;
45296;SDS011;31040;51.622;10.420;2022-10-28T05:38:38;9.50;;;4.88;;
45296;SDS011;31040;51.622;10.420;2022-10-28T05:41:08;11.93;;;4.88;;
45296;SDS011;31040;51.622;10.420;2022-10-28T05:43:35;9.80;;;5.03;;
45296;SDS011;31040;51.622;10.420;2022-10-28T05:46:03;8.90;;;4.38;;
45296;SDS011;31040;51.622;10.420;2022-10-28T05:48:30;11.27;;;4.63;;
45296;SDS011;31040;51.622;10.420;2022-10-28T05:50:58;7.68;;;4.53;;
45296;SDS011;31040;51.622;10.420;2022-10-28T05:53:25;9.82;;;4.32;;
45296;SDS011;31040;51.622;10.420;2022-10-28T05:55:55;11.10;;;4.80;;
45296;SDS011;31040;51.622;10.420;2022-10-28T05:58:22;12.65;;;4.80;;
45296;SDS011;31040;51.622;10.420;2022-10-28T06:00:50;8.43;;;4.50;;
45296;SDS011;31040;51.622;10.420;2022-10-28T06:03:17;9.75;;;4.60;;
45296;SDS011;31040;51.622;10.420;2022-10-28T06:05:55;13.98;;;5.45;;
45296;SDS011;31040;51.622;10.420;2022-10-28T06:08:23;9.27;;;4.45;;
45296;SDS011;31040;51.622;10.420;2022-10-28T06:10:51;11.43;;;4.72;;
45296;SDS011;31040;51.622;10.420;2022-10-28T06:13:19;11.18;;;4.85;;
45296;SDS011;31040;51.622;10.420;2022-10-28T06:15:50;12.10;;;5.53;;
45296;SDS011;31040;51.622;10.420;2022-10-28T06:18:18;9.38;;;4.80;;
45296;SDS011;31040;51.622;10.420;2022-10-28T06:20:56;11.35;;;5.15;;
45296;SDS011;31040;51.622;10.420;2022-10-28T06:23:24;7.55;;;4.80;;
45296;SDS011;31040;51.622;10.420;2022-10-28T06:25:59;9.57;;;4.72;;
45296;SDS011;31040;51.622;10.420;2022-10-28T06:28:27;14.07;;;4.30;;
45296;SDS011;31040;51.622;10.420;2022-10-28T06:31:01;13.85;;;5.10;;
45296;SDS011;31040;51.622;10.420;2022-10-28T06:33:29;15.60;;;5.05;;
45296;SDS011;31040;51.622;10.420;2022-10-28T06:35:58;15.30;;;5.13;;
45296;SDS011;31040;51.622;10.420;2022-10-28T06:38:26;12.65;;;5.70;;
45296;SDS011;31040;51.622;10.420;2022-10-28T06:40:56;11.50;;;5.20;;
45296;SDS011;31040;51.622;10.420;2022-10-28T06:43:25;10.00;;;5.45;;
45296;SDS011;31040;51.622;10.420;2022-10-28T06:45:52;11.25;;;5.65;;
45296;SDS011;31040;51.622;10.420;2022-10-28T06:48:22;17.75;;;7.03;;
45296;SDS011;31040;51.622;10.420;2022-10-28T06:50:50;11.73;;;5.57;;
45296;SDS011;31040;51.622;10.420;2022-10-28T06:53:17;14.65;;;5.50;;
45296;SDS011;31040;51.622;10.420;2022-10-28T06:55:52;18.35;;;6.40;;
45296;SDS011;31040;51.622;10.420;2022-10-28T06:58:20;16.23;;;5.88;;
45296;SDS011;31040;51.622;10.420;2022-10-28T07:00:47;10.30;;;6.20;;
45296;SDS011;31040;51.622;10.420;2022-10-28T07:03:15;10.25;;;6.15;;
45296;SDS011;31040;51.622;10.420;2022-10-28T07:05:44;15.73;;;6.20;;
45296;SDS011;31040;51.622;10.420;2022-10-28T07:08:12;10.75;;;5.43;;
45296;SDS011;31040;51.622;10.420;2022-10-28T07:10:40;11.85;;;5.68;;
45296;SDS011;31040;51.622;10.420;2022-10-28T07:13:08;9.90;;;5.10;;
45296;SDS011;31040;51.622;10.420;2022-10-28T07:15:35;11.00;;;5.05;;
45296;SDS011;31040;51.622;10.420;2022-10-28T07:18:03;13.25;;;5.47;;
45296;SDS011;31040;51.622;10.420;2022-10-28T07:20:30;9.80;;;5.18;;
45296;SDS011;31040;51.622;10.420;2022-10-28T07:22:58;9.43;;;5.00;;
45296;SDS011;31040;51.622;10.420;2022-10-28T07:25:27;12.23;;;5.07;;
45296;SDS011;31040;51.622;10.420;2022-10-28T07:27:55;10.38;;;5.13;;
45296;SDS011;31040;51.622;10.420;2022-10-28T07:30:23;8.48;;;4.22;;
45296;SDS011;31040;51.622;10.420;2022-10-28T07:32:51;14.32;;;5.25;;
45296;SDS011;31040;51.622;10.420;2022-10-28T07:35:19;10.32;;;4.53;;
45296;SDS011;31040;51.622;10.420;2022-10-28T07:37:47;14.18;;;6.10;;
45296;SDS011;31040;51.622;10.420;2022-10-28T07:40:18;10.27;;;4.20;;
45296;SDS011;31040;51.622;10.420;2022-10-28T07:42:46;8.68;;;4.07;;
45296;SDS011;31040;51.622;10.420;2022-10-28T07:45:13;13.82;;;4.68;;
45296;SDS011;31040;51.622;10.420;2022-10-28T07:47:40;11.88;;;4.38;;
45296;SDS011;31040;51.622;10.420;2022-10-28T07:50:08;12.45;;;4.05;;
45296;SDS011;31040;51.622;10.420;2022-10-28T07:52:36;8.55;;;4.10;;
45296;SDS011;31040;51.622;10.420;2022-10-28T07:55:04;10.30;;;4.32;;
45296;SDS011;31040;51.622;10.420;2022-10-28T07:57:33;10.50;;;4.47;;
45296;SDS011;31040;51.622;10.420;2022-10-28T08:00:00;14.07;;;4.13;;
45296;SDS011;31040;51.622;10.420;2022-10-28T08:02:28;17.10;;;4.05;;
45296;SDS011;31040;51.622;10.420;2022-10-28T08:04:55;12.80;;;4.28;;
45296;SDS011;31040;51.622;10.420;2022-10-28T08:07:25;19.30;;;4.57;;
45296;SDS011;31040;51.622;10.420;2022-10-28T08:09:53;10.95;;;3.60;;
45296;SDS011;31040;51.622;10.420;2022-10-28T08:12:20;9.65;;;4.28;;
45296;SDS011;31040;51.622;10.420;2022-10-28T08:14:48;8.55;;;3.85;;
45296;SDS011;31040;51.622;10.420;2022-10-28T08:17:15;17.95;;;4.20;;
45296;SDS011;31040;51.622;10.420;2022-10-28T08:19:43;7.57;;;4.10;;
45296;SDS011;31040;51.622;10.420;2022-10-28T08:22:11;9.32;;;3.80;;
45296;SDS011;31040;51.622;10.420;2022-10-28T08:24:38;19.08;;;4.53;;
45296;SDS011;31040;51.622;10.420;2022-10-28T08:27:05;14.07;;;3.45;;
45296;SDS011;31040;51.622;10.420;2022-10-28T08:29:33;10.77;;;3.15;;
45296;SDS011;31040;51.622;10.420;2022-10-28T08:32:00;15.98;;;3.65;;
45296;SDS011;31040;51.622;10.420;2022-10-28T08:34:28;9.82;;;3.88;;
45296;SDS011;31040;51.622;10.420;2022-10-28T08:36:56;13.05;;;4.28;;
45296;SDS011;31040;51.622;10.420;2022-10-28T08:39:24;13.18;;;3.60;;
45296;SDS011;31040;51.622;10.420;2022-10-28T08:44:44;10.55;;;4.15;;
45296;SDS011;31040;51.622;10.420;2022-10-28T08:49:51;11.93;;;3.53;;
45296;SDS011;31040;51.622;10.420;2022-10-28T08:52:24;11.20;;;3.53;;
45296;SDS011;31040;51.622;10.420;2022-10-28T09:00:01;9.32;;;3.42;;
45296;SDS011;31040;51.622;10.420;2022-10-28T09:02:30;12.18;;;2.97;;
45296;SDS011;31040;51.622;10.420;2022-10-28T09:07:34;7.28;;;3.40;;
45296;SDS011;31040;51.622;10.420;2022-10-28T09:10:03;9.18;;;3.33;;
45296;SDS011;31040;51.622;10.420;2022-10-28T09:23:02;12.43;;;3.38;;
45296;SDS011;31040;51.622;10.420;2022-10-28T09:25:37;7.22;;;3.03;;
45296;SDS011;31040;51.622;10.420;2022-10-28T09:35:48;10.27;;;3.30;;
45296;SDS011;31040;51.622;10.420;2022-10-28T09:38:30;13.35;;;3.70;;
45296;SDS011;31040;51.622;10.420;2022-10-28T09:41:00;11.48;;;3.55;;
45296;SDS011;31040;51.622;10.420;2022-10-28T09:43:32;17.98;;;3.97;;
45296;SDS011;31040;51.622;10.420;2022-10-28T09:46:03;5.57;;;2.80;;
45296;SDS011;31040;51.622;10.420;2022-10-28T09:48:36;7.50;;;2.92;;
45296;SDS011;31040;51.622;10.420;2022-10-28T09:51:05;10.05;;;3.72;;
45296;SDS011;31040;51.622;10.420;2022-10-28T09:56:19;9.38;;;3.10;;
45296;SDS011;31040;51.622;10.420;2022-10-28T09:58:46;6.25;;;3.35;;
45296;SDS011;31040;51.622;10.420;2022-10-28T10:01:15;11.35;;;3.28;;
45296;SDS011;31040;51.622;10.420;2022-10-28T10:03:45;8.73;;;3.10;;
45296;SDS011;31040;51.622;10.420;2022-10-28T10:06:18;4.95;;;2.88;;
45296;SDS011;31040;51.622;10.420;2022-10-28T10:08:46;8.45;;;3.60;;
45296;SDS011;31040;51.622;10.420;2022-10-28T10:13:51;5.60;;;2.83;;
45296;SDS011;31040;51.622;10.420;2022-10-28T10:16:38;6.80;;;3.13;;
45296;SDS011;31040;51.622;10.420;2022-10-28T10:19:07;8.35;;;4.25;;
45296;SDS011;31040;51.622;10.420;2022-10-28T10:26:54;7.43;;;3.03;;
45296;SDS011;31040;51.622;10.420;2022-10-28T10:29:22;6.38;;;2.95;;
45296;SDS011;31040;51.622;10.420;2022-10-28T10:35:00;7.15;;;2.80;;
45296;SDS011;31040;51.622;10.420;2022-10-28T10:37:29;6.05;;;2.80;;
45296;SDS011;31040;51.622;10.420;2022-10-28T10:40:01;5.57;;;2.67;;
45296;SDS011;31040;51.622;10.420;2022-10-28T10:42:32;6.60;;;2.38;;
45296;SDS011;31040;51.622;10.420;2022-10-28T10:47:57;6.45;;;2.85;;
45296;SDS011;31040;51.622;10.420;2022-10-28T10:50:31;6.28;;;3.28;;
45296;SDS011;31040;51.622;10.420;2022-10-28T10:52:59;8.40;;;2.92;;
45296;SDS011;31040;51.622;10.420;2022-10-28T10:58:02;3.67;;;2.30;;
45296;SDS011;31040;51.622;10.420;2022-10-28T11:00:34;5.32;;;2.13;;
45296;SDS011;31040;51.622;10.420;2022-10-28T11:03:03;5.90;;;2.40;;
45296;SDS011;31040;51.622;10.420;2022-10-28T11:05:32;5.18;;;2.50;;
45296;SDS011;31040;51.622;10.420;2022-10-28T11:08:03;7.70;;;2.63;;
45296;SDS011;31040;51.622;10.420;2022-10-28T11:10:32;6.32;;;3.08;;
45296;SDS011;31040;51.622;10.420;2022-10-28T11:13:02;6.07;;;2.35;;
45296;SDS011;31040;51.622;10.420;2022-10-28T11:15:31;6.30;;;2.92;;
45296;SDS011;31040;51.622;10.420;2022-10-28T11:18:03;7.78;;;2.97;;
45296;SDS011;31040;51.622;10.420;2022-10-28T11:20:56;9.88;;;2.58;;
45296;SDS011;31040;51.622;10.420;2022-10-28T11:23:33;8.15;;;2.63;;
45296;SDS011;31040;51.622;10.420;2022-10-28T11:26:05;6.63;;;2.22;;
45296;SDS011;31040;51.622;10.420;2022-10-28T11:31:17;5.82;;;2.92;;
45296;SDS011;31040;51.622;10.420;2022-10-28T11:36:33;6.93;;;2.38;;
45296;SDS011;31040;51.622;10.420;2022-10-28T11:41:56;14.40;;;2.83;;
45296;SDS011;31040;51.622;10.420;2022-10-28T11:47:05;7.47;;;2.55;;
45296;SDS011;31040;51.622;10.420;2022-10-28T11:58:11;6.88;;;2.42;;
45296;SDS011;31040;51.622;10.420;2022-10-28T12:00:49;5.15;;;2.30;;
45296;SDS011;31040;51.622;10.420;2022-10-28T12:06:06;7.82;;;2.53;;
45296;SDS011;31040;51.622;10.420;2022-10-28T12:21:28;6.35;;;2.50;;
45296;SDS011;31040;51.622;10.420;2022-10-28T12:23:57;6.70;;;2.30;;
45296;SDS011;31040;51.622;10.420;2022-10-28T12:26:32;6.07;;;2.40;;
45296;SDS011;31040;51.622;10.420;2022-10-28T12:29:00;7.13;;;2.65;;
45296;SDS011;31040;51.622;10.420;2022-10-28T12:31:33;8.55;;;2.72;;
45296;SDS011;31040;51.622;10.420;2022-10-28T12:34:04;6.57;;;2.87;;
45296;SDS011;31040;51.622;10.420;2022-10-28T12:36:41;10.05;;;2.85;;
45296;SDS011;31040;51.622;10.420;2022-10-28T12:39:14;7.40;;;3.08;;
45296;SDS011;31040;51.622;10.420;2022-10-28T12:41:58;6.30;;;2.50;;
45296;SDS011;31040;51.622;10.420;2022-10-28T12:44:27;10.13;;;2.67;;
45296;SDS011;31040;51.622;10.420;2022-10-28T12:47:04;6.43;;;2.53;;
45296;SDS011;31040;51.622;10.420;2022-10-28T12:52:15;9.50;;;2.50;;
45296;SDS011;31040;51.622;10.420;2022-10-28T12:57:19;17.15;;;4.45;;
45296;SDS011;31040;51.622;10.420;2022-10-28T13:02:29;16.15;;;3.50;;
45296;SDS011;31040;51.622;10.420;2022-10-28T13:04:58;8.20;;;2.47;;
45296;SDS011;31040;51.622;10.420;2022-10-28T13:28:16;6.25;;;3.15;;
45296;SDS011;31040;51.622;10.420;2022-10-28T13:31:18;6.47;;;2.65;;
45296;SDS011;31040;51.622;10.420;2022-10-28T13:36:15;7.40;;;2.47;;
45296;SDS011;31040;51.622;10.420;2022-10-28T13:38:54;5.90;;;2.50;;
45296;SDS011;31040;51.622;10.420;2022-10-28T13:41:25;6.88;;;2.92;;
45296;SDS011;31040;51.622;10.420;2022-10-28T13:49:50;6.13;;;2.70;;
45296;SDS011;31040;51.622;10.420;2022-10-28T14:02:22;6.65;;;2.83;;
45296;SDS011;31040;51.622;10.420;2022-10-28T14:05:07;7.43;;;2.70;;
45296;SDS011;31040;51.622;10.420;2022-10-28T14:07:37;7.93;;;3.10;;
45296;SDS011;31040;51.622;10.420;2022-10-28T14:12:46;6.88;;;2.83;;
45296;SDS011;31040;51.622;10.420;2022-10-28T14:15:23;4.13;;;2.67;;
45296;SDS011;31040;51.622;10.420;2022-10-28T14:33:40;10.27;;;3.15;;
45296;SDS011;31040;51.622;10.420;2022-10-28T14:44:13;9.18;;;3.10;;
45296;SDS011;31040;51.622;10.420;2022-10-28T14:49:30;19.95;;;5.15;;
45296;SDS011;31040;51.622;10.420;2022-10-28T14:52:03;7.68;;;3.45;;
45296;SDS011;31040;51.622;10.420;2022-10-28T14:57:05;11.07;;;3.70;;
45296;SDS011;31040;51.622;10.420;2022-10-28T14:59:37;8.70;;;3.33;;
45296;SDS011;31040;51.622;10.420;2022-10-28T15:04:37;9.18;;;4.15;;
45296;SDS011;31040;51.622;10.420;2022-10-28T15:07:16;9.25;;;4.20;;
45296;SDS011;31040;51.622;10.420;2022-10-28T15:09:44;8.63;;;4.13;;
45296;SDS011;31040;51.622;10.420;2022-10-28T15:12:14;14.07;;;3.30;;
45296;SDS011;31040;51.622;10.420;2022-10-28T15:14:46;7.15;;;3.78;;
45296;SDS011;31040;51.622;10.420;2022-10-28T15:19:48;8.80;;;3.63;;
45296;SDS011;31040;51.622;10.420;2022-10-28T15:22:26;13.95;;;4.10;;
45296;SDS011;31040;51.622;10.420;2022-10-28T15:24:57;12.27;;;4.68;;
45296;SDS011;31040;51.622;10.420;2022-10-28T15:27:31;10.75;;;4.03;;
45296;SDS011;31040;51.622;10.420;2022-10-28T15:32:31;7.70;;;3.67;;
45296;SDS011;31040;51.622;10.420;2022-10-28T15:34:59;8.93;;;4.05;;
45296;SDS011;31040;51.622;10.420;2022-10-28T15:37:46;7.35;;;4.53;;
45296;SDS011;31040;51.622;10.420;2022-10-28T15:40:18;11.57;;;5.68;;
45296;SDS011;31040;51.622;10.420;2022-10-28T15:45:24;9.43;;;3.85;;
45296;SDS011;31040;51.622;10.420;2022-10-28T15:47:52;13.80;;;4.97;;
45296;SDS011;31040;51.622;10.420;2022-10-28T15:50:26;12.05;;;4.55;;
45296;SDS011;31040;51.622;10.420;2022-10-28T15:53:18;10.52;;;4.03;;
45296;SDS011;31040;51.622;10.420;2022-10-28T15:55:41;16.83;;;5.10;;
45296;SDS011;31040;51.622;10.420;2022-10-28T15:58:34;12.68;;;5.00;;
45296;SDS011;31040;51.622;10.420;2022-10-28T16:01:02;10.18;;;4.65;;
45296;SDS011;31040;51.622;10.420;2022-10-28T16:03:44;12.90;;;4.28;;
45296;SDS011;31040;51.622;10.420;2022-10-28T16:06:28;5.72;;;4.68;;
45296;SDS011;31040;51.622;10.420;2022-10-28T16:09:15;15.18;;;5.00;;
45296;SDS011;31040;51.622;10.420;2022-10-28T16:11:48;16.02;;;5.32;;
45296;SDS011;31040;51.622;10.420;2022-10-28T16:16:43;14.73;;;6.28;;
45296;SDS011;31040;51.622;10.420;2022-10-28T16:19:18;12.63;;;5.97;;
45296;SDS011;31040;51.622;10.420;2022-10-28T16:21:52;13.00;;;6.70;;
45296;SDS011;31040;51.622;10.420;2022-10-28T16:24:23;9.77;;;4.07;;
45296;SDS011;31040;51.622;10.420;2022-10-28T16:26:50;14.57;;;5.00;;
45296;SDS011;31040;51.622;10.420;2022-10-28T16:29:18;15.90;;;5.45;;
45296;SDS011;31040;51.622;10.420;2022-10-28T16:31:46;12.98;;;5.10;;
45296;SDS011;31040;51.622;10.420;2022-10-28T16:34:16;8.82;;;4.93;;
45296;SDS011;31040;51.622;10.420;2022-10-28T16:36:44;12.55;;;5.13;;
45296;SDS011;31040;51.622;10.420;2022-10-28T16:39:14;9.10;;;5.50;;
45296;SDS011;31040;51.622;10.420;2022-10-28T16:41:41;13.23;;;5.25;;
45296;SDS011;31040;51.622;10.420;2022-10-28T16:44:14;13.73;;;5.60;;
45296;SDS011;31040;51.622;10.420;2022-10-28T16:46:42;13.75;;;5.22;;
45296;SDS011;31040;51.622;10.420;2022-10-28T16:49:10;13.00;;;5.63;;
45296;SDS011;31040;51.622;10.420;2022-10-28T16:51:37;14.57;;;6.85;;
45296;SDS011;31040;51.622;10.420;2022-10-28T16:54:05;12.68;;;6.60;;
45296;SDS011;31040;51.622;10.420;2022-10-28T16:56:38;14.65;;;6.28;;
45296;SDS011;31040;51.622;10.420;2022-10-28T16:59:06;16.05;;;7.10;;
45296;SDS011;31040;51.622;10.420;2022-10-28T17:01:34;9.90;;;6.57;;
45296;SDS011;31040;51.622;10.420;2022-10-28T17:04:02;17.90;;;7.28;;
45296;SDS011;31040;51.622;10.420;2022-10-28T17:06:33;16.13;;;7.93;;
45296;SDS011;31040;51.622;10.420;2022-10-28T17:09:00;18.05;;;8.70;;
45296;SDS011;31040;51.622;10.420;2022-10-28T17:11:29;22.23;;;6.72;;
45296;SDS011;31040;51.622;10.420;2022-10-28T17:13:56;16.40;;;7.10;;
45296;SDS011;31040;51.622;10.420;2022-10-28T17:16:24;15.00;;;6.80;;
45296;SDS011;31040;51.622;10.420;2022-10-28T17:18:51;17.65;;;7.75;;
45296;SDS011;31040;51.622;10.420;2022-10-28T17:21:19;18.70;;;6.55;;
45296;SDS011;31040;51.622;10.420;2022-10-28T17:23:46;20.30;;;6.90;;
45296;SDS011;31040;51.622;10.420;2022-10-28T17:26:14;17.75;;;6.10;;
45296;SDS011;31040;51.622;10.420;2022-10-28T17:28:41;16.00;;;6.45;;
45296;SDS011;31040;51.622;10.420;2022-10-28T17:31:08;14.45;;;6.45;;
45296;SDS011;31040;51.622;10.420;2022-10-28T17:33:36;12.48;;;5.50;;
45296;SDS011;31040;51.622;10.420;2022-10-28T17:36:04;18.33;;;6.75;;
45296;SDS011;31040;51.622;10.420;2022-10-28T17:38:31;13.93;;;5.60;;
45296;SDS011;31040;51.622;10.420;2022-10-28T17:40:59;18.02;;;6.63;;
45296;SDS011;31040;51.622;10.420;2022-10-28T17:43:27;20.08;;;6.72;;
45296;SDS011;31040;51.622;10.420;2022-10-28T17:46:04;22.45;;;8.43;;
45296;SDS011;31040;51.622;10.420;2022-10-28T17:48:32;17.80;;;6.80;;
45296;SDS011;31040;51.622;10.420;2022-10-28T17:50:59;12.10;;;6.68;;
45296;SDS011;31040;51.622;10.420;2022-10-28T17:53:27;18.77;;;7.05;;
45296;SDS011;31040;51.622;10.420;2022-10-28T17:55:55;22.20;;;7.30;;
45296;SDS011;31040;51.622;10.420;2022-10-28T17:58:23;16.63;;;7.35;;
45296;SDS011;31040;51.622;10.420;2022-10-28T18:01:00;14.20;;;6.55;;
45296;SDS011;31040;51.622;10.420;2022-10-28T18:03:28;17.23;;;6.72;;
45296;SDS011;31040;51.622;10.420;2022-10-28T18:06:02;23.73;;;7.50;;
45296;SDS011;31040;51.622;10.420;2022-10-28T18:08:33;21.52;;;7.22;;
45296;SDS011;31040;51.622;10.420;2022-10-28T18:11:03;17.50;;;6.43;;
45296;SDS011;31040;51.622;10.420;2022-10-28T18:13:32;17.98;;;6.05;;
45296;SDS011;31040;51.622;10.420;2022-10-28T18:16:34;15.82;;;7.53;;
45296;SDS011;31040;51.622;10.420;2022-10-28T18:18:54;17.02;;;6.28;;
45296;SDS011;31040;51.622;10.420;2022-10-28T18:21:22;14.00;;;6.32;;
45296;SDS011;31040;51.622;10.420;2022-10-28T18:23:53;19.02;;;6.93;;
45296;SDS011;31040;51.622;10.420;2022-10-28T18:26:30;13.68;;;6.03;;
45296;SDS011;31040;51.622;10.420;2022-10-28T18:28:58;8.95;;;6.30;;
45296;SDS011;31040;51.622;10.420;2022-10-28T18:31:30;18.05;;;7.05;;
45296;SDS011;31040;51.622;10.420;2022-10-28T18:33:58;9.40;;;6.25;;
45296;SDS011;31040;51.622;10.420;2022-10-28T18:36:27;14.05;;;7.30;;
45296;SDS011;31040;51.622;10.420;2022-10-28T18:38:56;15.05;;;6.45;;
45296;SDS011;31040;51.622;10.420;2022-10-28T18:41:25;9.73;;;6.45;;